Terminal Aerodrome Forecast
Issued by NWS

Home | Current Version | Previous Version | Text Only | Print | Product List | Glossary On
Versions: 1 2 3 4 5 6 7 8 9 10 11 12 13
000
FTUS45 KREV 311728
TAFMMH
TAF
KMMH 311728Z 3118/0118 VRB04KT P6SM SCT100 BKN150
     FM311900 10011KT P6SM VCSH SCT080 BKN120
     FM010200 26008KT P6SM FEW080 SCT120 BKN150
     FM010600 VRB03KT P6SM BKN180=

USA.gov is the U.S. government's official web portal to all federal, state and local government web resources and services.